createdAt,value
2022-08-22T00:02:41.977Z,2.20
2022-08-22T00:03:58.393Z,2.80
2022-08-22T00:08:11.092Z,3.00
2022-08-22T00:12:25.056Z,2.70
2022-08-22T00:16:40.641Z,3.40
2022-08-22T00:20:54.407Z,3.70
2022-08-22T00:25:24.688Z,3.40
2022-08-22T00:29:39.003Z,3.00
2022-08-22T00:33:52.352Z,2.70
2022-08-22T00:38:05.366Z,2.70
2022-08-22T00:42:57.607Z,2.60
2022-08-22T00:47:23.015Z,2.50
2022-08-22T00:51:50.453Z,2.60
2022-08-22T00:56:12.176Z,2.60
2022-08-22T01:00:23.156Z,2.50
2022-08-22T01:04:54.368Z,2.20
2022-08-22T01:09:06.979Z,2.50
2022-08-22T01:13:31.316Z,2.80
2022-08-22T01:18:02.192Z,2.80
2022-08-22T01:22:47.027Z,2.60
2022-08-22T01:27:11.573Z,2.60
2022-08-22T01:31:46.683Z,2.90
2022-08-22T01:36:17.912Z,2.90
2022-08-22T01:41:00.842Z,3.00
2022-08-22T01:45:34.597Z,3.00
2022-08-22T01:49:48.246Z,2.70
2022-08-22T01:54:02.313Z,3.20
2022-08-22T01:58:19.242Z,2.90
2022-08-22T02:02:52.551Z,2.80
2022-08-22T02:07:07.934Z,2.90
2022-08-22T02:11:31.589Z,3.10
2022-08-22T02:15:51.294Z,3.00
2022-08-22T02:20:04.076Z,2.70
2022-08-22T02:24:23.835Z,2.50
2022-08-22T02:28:38.147Z,2.10
2022-08-22T02:32:58.589Z,2.20
2022-08-22T02:37:15.256Z,2.10
2022-08-22T02:41:28.688Z,2.50
2022-08-22T02:45:42.165Z,2.10
2022-08-22T02:49:59.724Z,2.30
2022-08-22T02:54:26.764Z,2.40
2022-08-22T02:58:47.026Z,1.80
2022-08-22T03:03:07.698Z,1.90
2022-08-22T03:07:26.407Z,2.10
2022-08-22T03:11:37.488Z,1.90
2022-08-22T03:15:49.430Z,2.30
2022-08-22T03:20:00.404Z,1.80
2022-08-22T03:24:13.313Z,2.00
2022-08-22T03:28:23.802Z,1.70
2022-08-22T03:32:55.920Z,1.70
2022-08-22T03:37:13.067Z,1.50
2022-08-22T03:41:47.073Z,1.80
2022-08-22T03:46:18.485Z,1.80
2022-08-22T03:50:56.381Z,1.80
2022-08-22T03:55:17.174Z,1.60
2022-08-22T03:59:49.432Z,1.80
2022-08-22T04:04:18.954Z,1.60
2022-08-22T04:08:59.802Z,1.70
2022-08-22T04:13:40.017Z,1.30
2022-08-22T04:18:33.450Z,2.00
2022-08-22T04:23:12.872Z,1.70
2022-08-22T04:27:26.072Z,1.80
2022-08-22T04:31:38.155Z,1.70
2022-08-22T04:35:56.907Z,1.50
2022-08-22T04:40:12.046Z,1.70
2022-08-22T04:44:24.480Z,1.80
2022-08-22T04:48:37.079Z,1.70
2022-08-22T04:52:53.794Z,2.10
2022-08-22T04:57:12.926Z,2.10
2022-08-22T05:01:22.593Z,2.10
2022-08-22T05:05:34.842Z,1.80
2022-08-22T05:09:46.455Z,1.70
2022-08-22T05:14:00.288Z,1.60
2022-08-22T05:18:10.353Z,1.50
2022-08-22T05:22:21.859Z,1.40
2022-08-22T05:26:31.227Z,1.50
2022-08-22T05:30:39.207Z,1.50
2022-08-22T05:34:49.122Z,1.30
2022-08-22T05:39:01.089Z,1.20
2022-08-22T05:43:10.593Z,1.40
2022-08-22T05:47:28.516Z,2.30
2022-08-22T05:51:42.030Z,1.60
2022-08-22T05:55:57.931Z,1.50
2022-08-22T06:00:11.162Z,1.50
2022-08-22T06:04:31.588Z,1.40
2022-08-22T06:08:41.365Z,1.90
2022-08-22T06:12:55.498Z,1.80
2022-08-22T06:17:11.747Z,1.40
2022-08-22T06:21:26.555Z,1.70
2022-08-22T06:25:37.853Z,1.60
2022-08-22T06:29:49.902Z,1.30
2022-08-22T06:34:04.737Z,1.90
2022-08-22T06:38:13.574Z,1.60
2022-08-22T06:42:23.378Z,1.50
2022-08-22T06:46:33.478Z,2.00
2022-08-22T06:50:42.973Z,1.50
2022-08-22T06:54:53.001Z,1.50
2022-08-22T06:59:02.824Z,1.40
2022-08-22T07:03:12.913Z,1.60
2022-08-22T07:07:23.109Z,1.40
2022-08-22T07:11:33.373Z,1.50
2022-08-22T07:15:44.406Z,1.70
2022-08-22T07:19:59.720Z,1.50
2022-08-22T07:24:08.257Z,1.60
2022-08-22T07:28:31.750Z,1.50
2022-08-22T07:32:50.878Z,1.60
2022-08-22T07:37:02.274Z,1.70
2022-08-22T07:41:15.505Z,1.80
2022-08-22T07:45:29.938Z,1.70
2022-08-22T07:49:49.663Z,1.90
2022-08-22T07:54:03.673Z,1.70
2022-08-22T07:58:13.809Z,1.60
2022-08-22T08:02:22.998Z,1.40
2022-08-22T08:06:32.570Z,1.50
2022-08-22T08:10:42.036Z,1.50
2022-08-22T08:14:54.062Z,1.60
2022-08-22T08:19:06.790Z,2.00
2022-08-22T08:23:23.406Z,1.40
2022-08-22T08:27:51.325Z,1.90
2022-08-22T08:32:00.020Z,1.50
2022-08-22T08:36:15.876Z,1.70
2022-08-22T08:40:49.204Z,1.60
2022-08-22T08:45:25.410Z,2.00
2022-08-22T08:49:55.485Z,1.70
2022-08-22T08:54:24.831Z,2.00
2022-08-22T08:58:39.270Z,1.80
2022-08-22T09:03:07.299Z,2.00
2022-08-22T09:07:50.886Z,1.90
2022-08-22T09:12:27.115Z,1.60
2022-08-22T09:16:51.579Z,1.80
2022-08-22T09:21:29.730Z,1.40
2022-08-22T09:25:41.586Z,1.60
2022-08-22T09:29:55.386Z,1.60
2022-08-22T09:34:12.581Z,1.60
2022-08-22T09:38:34.781Z,2.10
2022-08-22T09:42:49.968Z,1.60
2022-08-22T09:47:07.603Z,1.70
2022-08-22T09:51:33.104Z,1.60
2022-08-22T09:55:45.143Z,1.60
2022-08-22T10:00:22.396Z,1.20
2022-08-22T10:04:46.233Z,1.60
2022-08-22T10:09:02.621Z,1.40
2022-08-22T10:13:16.460Z,1.20
2022-08-22T10:17:32.614Z,1.20
2022-08-22T10:21:48.767Z,1.00
2022-08-22T10:25:59.535Z,1.30
2022-08-22T10:30:13.398Z,1.20
2022-08-22T10:34:26.359Z,1.40
2022-08-22T10:38:46.502Z,1.60
2022-08-22T10:42:59.365Z,1.60
2022-08-22T10:47:13.930Z,1.50
2022-08-22T10:51:38.040Z,1.40
2022-08-22T10:55:51.721Z,1.40
2022-08-22T11:00:15.560Z,1.60
2022-08-22T11:04:36.803Z,1.80
2022-08-22T11:09:14.922Z,2.20
2022-08-22T11:13:32.212Z,2.10
2022-08-22T11:18:13.198Z,2.50
2022-08-22T11:22:33.163Z,2.90
2022-08-22T11:26:46.641Z,2.50
2022-08-22T11:31:07.223Z,3.60
2022-08-22T11:35:21.228Z,2.90
2022-08-22T11:39:35.389Z,2.80
2022-08-22T11:44:01.466Z,3.60
2022-08-22T11:48:14.462Z,4.40
2022-08-22T11:52:26.887Z,3.60
2022-08-22T11:56:41.543Z,4.10
2022-08-22T12:00:54.311Z,4.60
2022-08-22T12:05:08.789Z,4.80
2022-08-22T12:09:47.720Z,4.80
2022-08-22T12:14:02.330Z,5.00
2022-08-22T12:18:38.758Z,4.20
2022-08-22T12:23:03.471Z,4.70
2022-08-22T12:27:29.304Z,4.70
2022-08-22T12:31:42.699Z,4.60
2022-08-22T12:36:01.845Z,4.60
2022-08-22T12:40:26.395Z,4.70
2022-08-22T12:44:44.626Z,5.00
2022-08-22T12:49:07.461Z,3.80
2022-08-22T12:53:46.099Z,4.50
2022-08-22T12:58:00.884Z,3.70
2022-08-22T13:02:19.210Z,4.40
2022-08-22T13:07:06.662Z,3.90
2022-08-22T13:11:22.984Z,3.50
2022-08-22T13:15:34.321Z,3.80
2022-08-22T13:19:56.221Z,4.10
2022-08-22T13:24:10.601Z,4.00
2022-08-22T13:28:20.347Z,4.70
2022-08-22T13:32:32.906Z,3.50
2022-08-22T13:36:52.126Z,3.30
2022-08-22T13:41:01.436Z,4.00
2022-08-22T13:45:15.897Z,3.50
2022-08-22T13:49:36.181Z,4.00
2022-08-22T13:53:56.709Z,3.80
2022-08-22T13:58:14.572Z,4.50
2022-08-22T14:02:39.052Z,4.80
2022-08-22T14:06:55.677Z,3.90
2022-08-22T14:11:08.493Z,4.50
2022-08-22T14:15:24.065Z,3.80
2022-08-22T14:19:58.766Z,4.30
2022-08-22T14:24:07.565Z,4.50
2022-08-22T14:28:27.680Z,4.60
2022-08-22T14:32:44.588Z,4.10
2022-08-22T14:36:58.163Z,5.10
2022-08-22T14:41:09.358Z,3.70
2022-08-22T14:45:21.913Z,5.00
2022-08-22T14:49:38.226Z,4.10
2022-08-22T14:53:45.776Z,5.50
2022-08-22T14:58:03.368Z,6.80
2022-08-22T15:02:14.699Z,6.50
2022-08-22T15:06:37.056Z,6.80
2022-08-22T15:10:45.547Z,7.40
2022-08-22T15:14:56.585Z,6.90
2022-08-22T15:19:06.731Z,6.80
2022-08-22T15:23:22.104Z,7.00
2022-08-22T15:27:32.878Z,7.60
2022-08-22T15:31:46.445Z,8.20
2022-08-22T15:35:56.309Z,8.70
2022-08-22T15:40:12.738Z,8.10
2022-08-22T15:44:33.482Z,8.30
2022-08-22T15:48:43.451Z,8.60
2022-08-22T15:53:16.499Z,9.90
2022-08-22T15:57:29.670Z,9.10
2022-08-22T16:01:45.712Z,8.30
2022-08-22T16:06:00.917Z,9.30
2022-08-22T16:10:15.211Z,10.10
2022-08-22T16:14:26.741Z,8.30
2022-08-22T16:19:12.861Z,8.40
2022-08-22T16:23:20.467Z,8.70
2022-08-22T16:27:29.664Z,9.10
2022-08-22T16:31:39.418Z,9.20
2022-08-22T16:36:26.827Z,9.90
2022-08-22T16:40:48.734Z,9.30
2022-08-22T16:44:59.479Z,10.00
2022-08-22T16:49:08.074Z,11.10
2022-08-22T16:53:45.844Z,11.00
2022-08-22T16:58:06.427Z,11.00
2022-08-22T17:02:53.396Z,10.80
2022-08-22T17:07:11.598Z,9.70
2022-08-22T17:11:30.146Z,10.60
2022-08-22T17:15:52.038Z,9.60
2022-08-22T17:20:09.257Z,8.90
2022-08-22T17:24:34.083Z,10.40
2022-08-22T17:28:49.275Z,10.70
2022-08-22T17:33:15.065Z,9.50
2022-08-22T17:37:27.458Z,10.50
2022-08-22T17:41:41.230Z,10.60
2022-08-22T17:46:13.355Z,8.10
2022-08-22T17:50:27.131Z,10.60
2022-08-22T17:54:37.190Z,9.90
2022-08-22T17:58:49.648Z,9.80
2022-08-22T18:03:02.193Z,11.70
2022-08-22T18:07:29.164Z,11.40
2022-08-22T18:11:44.408Z,11.80
2022-08-22T18:18:31.271Z,10.10
2022-08-22T18:22:47.557Z,10.10
2022-08-22T18:27:02.945Z,11.10
2022-08-22T18:31:26.415Z,8.70
2022-08-22T18:35:41.776Z,10.60
2022-08-22T18:39:55.623Z,9.90
2022-08-22T18:44:12.778Z,9.80
2022-08-22T18:48:24.570Z,10.40
2022-08-22T18:52:46.399Z,11.10
2022-08-22T18:57:07.316Z,11.40
2022-08-22T19:01:42.012Z,10.80
2022-08-22T19:06:24.429Z,10.40
2022-08-22T19:10:56.553Z,9.20
2022-08-22T19:15:26.156Z,10.90
2022-08-22T19:20:01.784Z,10.80
2022-08-22T19:24:11.565Z,10.10
2022-08-22T19:28:31.315Z,11.50
2022-08-22T19:33:04.034Z,10.70
2022-08-22T19:37:34.186Z,10.20
2022-08-22T19:41:57.216Z,8.90
2022-08-22T19:46:09.146Z,9.70
2022-08-22T19:50:31.539Z,8.90
2022-08-22T19:54:48.596Z,8.30
2022-08-22T19:59:10.030Z,8.70
2022-08-22T20:03:31.212Z,8.30
2022-08-22T20:07:51.954Z,5.90
2022-08-22T20:12:12.004Z,6.50
2022-08-22T20:16:25.529Z,6.80
2022-08-22T20:21:01.504Z,5.40
2022-08-22T20:25:20.708Z,6.40
2022-08-22T20:29:44.267Z,7.00
2022-08-22T20:33:57.927Z,6.60
2022-08-22T20:38:08.905Z,5.80
2022-08-22T20:42:18.231Z,4.80
2022-08-22T20:46:53.544Z,6.50
2022-08-22T20:51:07.685Z,4.90
2022-08-22T20:55:19.498Z,6.10
2022-08-22T20:59:37.240Z,5.70
2022-08-22T21:03:47.124Z,5.40
2022-08-22T21:08:10.269Z,5.40
2022-08-22T21:12:19.676Z,5.70
2022-08-22T21:16:32.035Z,5.80
2022-08-22T21:20:40.959Z,5.90
2022-08-22T21:24:48.660Z,5.60
2022-08-22T21:29:02.134Z,5.80
2022-08-22T21:33:09.557Z,5.60
2022-08-22T21:37:18.947Z,5.20
2022-08-22T21:41:33.424Z,6.30
2022-08-22T21:45:47.366Z,5.40
2022-08-22T21:50:08.372Z,5.60
2022-08-22T21:54:40.343Z,4.70
2022-08-22T21:58:48.318Z,4.50
2022-08-22T22:03:02.874Z,5.50
2022-08-22T22:07:10.892Z,4.60
2022-08-22T22:11:19.391Z,5.30
2022-08-22T22:15:31.939Z,5.10
2022-08-22T22:19:40.540Z,5.00
2022-08-22T22:23:51.032Z,6.30
2022-08-22T22:27:59.229Z,6.50
2022-08-22T22:32:07.836Z,6.50
2022-08-22T22:36:17.837Z,7.90
2022-08-22T22:40:26.055Z,7.60
2022-08-22T22:44:34.400Z,7.90
2022-08-22T22:48:42.254Z,7.30
2022-08-22T22:52:50.012Z,8.50
2022-08-22T22:56:58.629Z,8.80
2022-08-22T23:01:13.607Z,8.20
2022-08-22T23:05:23.245Z,8.20
2022-08-22T23:09:37.938Z,8.50
2022-08-22T23:13:48.519Z,8.80
2022-08-22T23:17:56.366Z,9.10
2022-08-22T23:22:04.626Z,8.70
2022-08-22T23:26:13.388Z,8.10
2022-08-22T23:30:21.471Z,9.00
2022-08-22T23:34:30.953Z,9.50
2022-08-22T23:38:38.447Z,9.70
2022-08-22T23:42:46.425Z,8.30
2022-08-22T23:46:54.053Z,8.60
2022-08-22T23:51:01.845Z,8.60
2022-08-22T23:55:10.903Z,8.40
2022-08-22T23:59:24.270Z,9.30
